Time;durP1;ratioP1;P1;durP2;ratioP2;P2;SDS_P1;SDS_P2;PMS_P1;PMS_P2;Temp;Humidity;BMP_temperature;BMP_pressure;BME280_temperature;BME280_humidity;BME280_pressure;Samples;Min_cycle;Max_cycle;Signal;HPM_P1;HPM_P2
2023/10/02 00:07:42;;;;;;;3.83;2.58;;;;;;;20.29;56.51;97348.03;10327514;28;20121;-24
2023/10/02 00:12:58;;;;;;;3.97;2.60;;;;;;;20.34;56.49;97356.53;10326655;28;20053;-24
2023/10/02 00:17:58;;;;;;;4.20;2.40;;;;;;;20.35;56.54;97359.94;10326308;28;20118;-24
2023/10/02 00:23:01;;;;;;;3.70;2.67;;;;;;;20.35;56.44;97353.13;10327286;28;20030;-24
2023/10/02 00:28:01;;;;;;;3.80;2.47;;;;;;;20.36;56.43;97369.25;10329001;28;20050;-24
2023/10/02 00:33:05;;;;;;;3.75;2.47;;;;;;;20.33;56.47;97364.16;10321674;28;20056;-24
2023/10/02 00:38:05;;;;;;;3.53;2.30;;;;;;;20.32;56.64;97362.44;10327527;28;20038;-24
2023/10/02 00:48:26;;;;;;;4.53;2.70;;;;;;;20.33;56.56;97374.34;10321145;28;20041;-24
2023/10/02 00:53:40;;;;;;;3.67;2.53;;;;;;;20.33;56.36;97362.47;10326728;28;20049;-24
2023/10/02 00:58:41;;;;;;;3.88;2.75;;;;;;;20.33;56.57;97364.16;10326544;28;20097;-24
2023/10/02 01:04:08;;;;;;;3.00;2.10;;;;;;;20.33;56.42;97366.72;10324610;28;20065;-24
2023/10/02 01:09:01;;;;;;;3.05;2.08;;;;;;;20.32;56.49;97353.13;10341705;28;20532;-24
2023/10/02 01:14:03;;;;;;;2.83;1.90;;;;;;;20.27;56.45;97343.78;10323096;28;20046;-24
2023/10/02 01:19:06;;;;;;;3.78;2.60;;;;;;;20.32;56.34;97349.72;10324011;28;20034;-24
2023/10/02 01:24:07;;;;;;;2.67;1.90;;;;;;;20.29;56.40;97347.19;10324216;28;20576;-25
2023/10/02 01:29:14;;;;;;;3.20;2.33;;;;;;;20.26;56.54;97350.56;10326750;28;20129;-24
2023/10/02 01:34:33;;;;;;;4.95;3.03;;;;;;;20.23;56.14;97337.84;10325058;28;20100;-24
2023/10/02 01:39:34;;;;;;;4.30;2.80;;;;;;;20.27;56.36;97343.78;10325241;28;20408;-24
2023/10/02 01:44:54;;;;;;;5.00;2.88;;;;;;;20.23;56.21;97336.97;10326166;28;20038;-24
2023/10/02 01:50:00;;;;;;;8.40;4.07;;;;;;;20.24;56.33;97333.59;10323874;28;20461;-24
2023/10/02 01:55:00;;;;;;;7.03;4.05;;;;;;;20.20;56.03;97324.28;10320405;28;20030;-24
2023/10/02 02:00:13;;;;;;;7.53;4.80;;;;;;;20.20;55.81;97327.69;10324870;28;20404;-24
2023/10/02 02:05:15;;;;;;;9.23;5.60;;;;;;;20.19;55.82;97328.50;10321752;28;20074;-24
2023/10/02 02:10:15;;;;;;;9.73;5.15;;;;;;;20.20;55.29;97324.28;10323371;28;20404;-24
2023/10/02 02:15:18;;;;;;;7.87;4.63;;;;;;;20.20;55.53;97320.06;10324372;28;20038;-23
2023/10/02 02:20:43;;;;;;;9.77;5.60;;;;;;;20.21;55.67;97318.34;10323127;28;20128;-24
2023/10/02 02:25:41;;;;;;;12.30;6.28;;;;;;;20.21;55.78;97318.34;10323101;28;20054;-24
2023/10/02 02:30:42;;;;;;;10.73;5.78;;;;;;;20.18;55.44;97316.63;10333494;28;20062;-24
2023/10/02 02:35:44;;;;;;;11.85;6.45;;;;;;;20.18;54.96;97314.09;10329366;28;20053;-25
2023/10/02 02:40:44;;;;;;;11.10;6.57;;;;;;;20.17;55.21;97306.47;10327701;28;20026;-24
2023/10/02 02:45:45;;;;;;;13.33;7.47;;;;;;;20.16;55.20;97304.75;10331025;28;20034;-24
2023/10/02 02:50:47;;;;;;;13.13;7.10;;;;;;;20.16;55.11;97294.59;10331597;28;20030;-24
2023/10/02 02:56:22;;;;;;;12.95;7.65;;;;;;;20.13;54.69;97299.66;10326170;28;20038;-24
2023/10/02 03:01:23;;;;;;;14.82;8.43;;;;;;;20.16;54.27;97286.97;10327120;28;20065;-25
2023/10/02 03:06:24;;;;;;;16.98;8.50;;;;;;;20.25;54.19;97289.56;10327935;28;20061;-24
2023/10/02 03:11:28;;;;;;;15.43;8.50;;;;;;;20.24;54.14;97287.81;10327880;28;20433;-24
2023/10/02 03:16:29;;;;;;;17.20;9.30;;;;;;;20.27;53.93;97283.59;10326303;28;20034;-24
2023/10/02 03:21:30;;;;;;;17.10;9.10;;;;;;;20.28;53.83;97285.28;10330457;28;20045;-24
2023/10/02 03:31:35;;;;;;;18.75;9.68;;;;;;;20.27;53.95;97282.78;10326922;28;20121;-24
2023/10/02 03:36:38;;;;;;;17.95;9.98;;;;;;;20.29;53.97;97283.63;10324130;28;20038;-23
2023/10/02 03:41:48;;;;;;;18.17;9.57;;;;;;;20.30;53.58;97272.59;10330017;28;20400;-24
2023/10/02 03:46:51;;;;;;;22.63;9.80;;;;;;;20.29;53.58;97275.97;10328594;28;20037;-24
2023/10/02 03:51:51;;;;;;;18.77;10.75;;;;;;;20.22;53.21;97264.09;10323293;28;20453;-24
2023/10/02 03:56:55;;;;;;;17.93;10.47;;;;;;;20.26;53.44;97265.81;10327871;28;20089;-24
2023/10/02 04:01:57;;;;;;;23.40;12.25;;;;;;;20.28;53.14;97259.88;10320826;28;20027;-23
2023/10/02 04:06:58;;;;;;;20.60;10.45;;;;;;;20.29;53.44;97260.72;10327919;28;20037;-24
2023/10/02 04:12:04;;;;;;;23.00;10.90;;;;;;;20.26;53.26;97256.47;10327760;28;20042;-24
2023/10/02 04:17:14;;;;;;;22.48;11.50;;;;;;;20.27;53.20;97257.34;10328961;28;20030;-23
2023/10/02 04:22:25;;;;;;;23.80;12.55;;;;;;;20.28;52.95;97266.66;10315014;28;20027;-24
2023/10/02 04:33:07;;;;;;;23.75;12.18;;;;;;;20.18;53.41;97267.50;10326519;28;20039;-24
2023/10/02 04:38:08;;;;;;;24.85;13.35;;;;;;;20.16;53.22;97264.06;10326366;28;20113;-23
2023/10/02 04:43:19;;;;;;;26.13;14.25;;;;;;;20.13;52.53;97275.13;10325968;28;20027;-24
2023/10/02 04:48:27;;;;;;;31.40;16.35;;;;;;;20.15;51.47;97275.09;10320732;28;20085;-23
2023/10/02 04:53:28;;;;;;;36.38;17.48;;;;;;;20.07;51.17;97274.22;10320282;28;20039;-24
2023/10/02 04:58:28;;;;;;;37.33;16.27;;;;;;;20.19;52.52;97274.28;10323049;28;20129;-23
2023/10/02 05:03:30;;;;;;;36.97;18.00;;;;;;;20.16;50.37;97275.09;10313581;28;20048;-24
2023/10/02 05:09:12;;;;;;;40.13;18.40;;;;;;;20.20;50.01;97275.97;10319404;28;20496;-24
2023/10/02 05:14:09;;;;;;;41.10;20.38;;;;;;;20.16;50.55;97274.25;10309383;28;20038;-24
2023/10/02 05:19:09;;;;;;;36.90;17.73;;;;;;;20.15;51.15;97277.63;10311116;28;20408;-25
2023/10/02 05:24:11;;;;;;;44.38;21.08;;;;;;;20.03;45.79;97282.66;10319481;28;20044;-24
2023/10/02 05:34:38;;;;;;;49.17;22.48;;;;;;;19.67;45.14;97292.72;10305298;28;20262;-23
2023/10/02 05:39:41;;;;;;;49.50;22.67;;;;;;;19.61;43.35;97301.13;10318589;28;20039;-24
2023/10/02 05:44:43;;;;;;;52.75;24.77;;;;;;;19.53;43.43;97312.09;10315853;28;20041;-24
2023/10/02 05:49:47;;;;;;;47.65;24.70;;;;;;;19.47;42.89;97322.22;10315935;28;20058;-24
2023/10/02 05:54:53;;;;;;;48.35;23.48;;;;;;;19.41;42.79;97319.66;10315136;28;20034;-25
2023/10/02 05:59:57;;;;;;;50.80;24.73;;;;;;;19.42;42.52;97321.38;10324567;28;20077;-24
2023/10/02 06:05:07;;;;;;;50.28;24.27;;;;;;;19.37;42.26;97326.41;10321550;28;20085;-23
2023/10/02 06:10:09;;;;;;;49.20;23.58;;;;;;;19.38;42.22;97327.25;10331036;28;20061;-24
2023/10/02 06:15:43;;;;;;;49.58;23.45;;;;;;;19.39;41.95;97321.34;10329961;28;20035;-24
2023/10/02 06:20:30;;;;;;;49.75;25.13;;;;;;;19.44;42.27;97335.75;10328816;28;20497;-26
2023/10/02 06:25:31;;;;;;;47.83;23.03;;;;;;;19.63;43.26;97337.56;10331237;28;20043;-23
2023/10/02 06:30:31;;;;;;;46.38;22.88;;;;;;;19.80;45.12;97335.97;10330062;28;20034;-23
2023/10/02 06:35:31;;;;;;;42.90;22.20;;;;;;;19.89;45.72;97324.97;10329726;28;20045;-24
2023/10/02 06:40:32;;;;;;;47.23;22.23;;;;;;;19.91;46.50;97330.94;10318448;28;20042;-24
2023/10/02 06:45:33;;;;;;;40.83;21.17;;;;;;;19.92;47.33;97337.72;10329424;28;20034;-24
2023/10/02 06:50:35;;;;;;;39.92;19.80;;;;;;;19.92;47.93;97335.16;10334806;28;20039;-24
2023/10/02 06:55:37;;;;;;;40.45;20.65;;;;;;;19.93;48.30;97336.88;10330347;28;20420;-24
2023/10/02 07:01:01;;;;;;;39.13;20.88;;;;;;;19.94;48.37;97336.84;10330467;28;20268;-24
2023/10/02 07:06:07;;;;;;;39.08;20.30;;;;;;;19.91;48.79;97339.38;10329992;28;20193;-24
2023/10/02 07:11:11;;;;;;;40.83;21.40;;;;;;;19.98;48.62;97335.16;10329364;28;20026;-24
2023/10/02 07:16:12;;;;;;;39.25;21.05;;;;;;;19.91;48.93;97326.69;10329160;28;20457;-24
2023/10/02 07:21:16;;;;;;;38.30;20.17;;;;;;;19.99;48.87;97347.03;10324525;28;20034;-23
2023/10/02 07:26:19;;;;;;;39.00;19.55;;;;;;;19.99;49.25;97336.88;10330791;28;20023;-24
2023/10/02 07:31:21;;;;;;;43.58;21.65;;;;;;;19.99;49.45;97337.72;10322337;28;20113;-24
2023/10/02 07:36:21;;;;;;;55.08;25.65;;;;;;;19.88;47.49;97338.53;10329441;28;20085;-24
2023/10/02 07:41:25;;;;;;;53.00;25.33;;;;;;;19.75;46.23;97332.53;10330862;28;20031;-24
2023/10/02 07:46:26;;;;;;;57.60;26.83;;;;;;;19.69;45.66;97334.22;10324241;28;20467;-23
2023/10/02 07:51:30;;;;;;;56.50;29.08;;;;;;;19.68;45.13;97335.88;10328715;28;20121;-24
2023/10/02 07:56:32;;;;;;;57.72;28.50;;;;;;;19.69;45.16;97339.28;10328442;28;20034;-24
2023/10/02 08:01:33;;;;;;;59.60;28.27;;;;;;;19.74;45.24;97345.22;10327115;28;20045;-24
2023/10/02 08:06:36;;;;;;;56.22;28.35;;;;;;;19.76;45.04;97333.41;10326973;28;20041;-24
2023/10/02 08:11:38;;;;;;;50.72;27.70;;;;;;;19.88;47.17;97328.38;10324820;28;20401;-25
2023/10/02 08:16:58;;;;;;;51.85;26.45;;;;;;;19.95;47.96;97335.16;10329054;28;20117;-24
2023/10/02 08:22:05;;;;;;;54.45;26.52;;;;;;;19.99;47.88;97322.47;10328574;28;20500;-24
2023/10/02 08:27:05;;;;;;;52.30;25.27;;;;;;;20.04;48.54;97327.56;10328512;28;20080;-24
2023/10/02 08:32:05;;;;;;;45.37;24.07;;;;;;;20.04;48.74;97333.56;10325398;28;20755;-24
2023/10/02 08:37:07;;;;;;;49.93;25.10;;;;;;;20.03;49.05;97330.97;10326965;28;20056;-24
2023/10/02 08:42:09;;;;;;;49.17;24.63;;;;;;;20.01;49.37;97328.41;10325513;28;20038;-24
2023/10/02 08:47:12;;;;;;;48.20;23.98;;;;;;;20.01;49.58;97330.13;10325383;28;20462;-24
2023/10/02 08:52:13;;;;;;;43.85;21.73;;;;;;;20.00;49.81;97328.44;10326477;28;20113;-24
2023/10/02 08:57:18;;;;;;;45.80;22.58;;;;;;;20.01;49.83;97319.97;10327743;28;20026;-24
2023/10/02 09:02:19;;;;;;;47.33;23.73;;;;;;;20.07;49.81;97317.44;10325864;28;20061;-24
2023/10/02 09:07:23;;;;;;;39.22;21.35;;;;;;;20.09;50.04;97316.59;10325784;28;20046;-24
2023/10/02 09:12:24;;;;;;;43.38;22.90;;;;;;;20.10;49.92;97313.22;10327137;28;20104;-24
2023/10/02 09:17:33;;;;;;;44.75;22.77;;;;;;;20.08;50.06;97314.09;10324146;28;20034;-24
2023/10/02 09:22:37;;;;;;;38.45;20.50;;;;;;;20.12;50.59;97319.19;10319865;28;20489;-25
2023/10/02 09:27:57;;;;;;;44.67;21.17;;;;;;;20.14;50.72;97312.41;10326844;28;20045;-24
2023/10/02 09:32:57;;;;;;;43.33;21.30;;;;;;;20.14;50.81;97312.41;10325794;28;20080;-24
2023/10/02 09:38:10;;;;;;;37.20;20.40;;;;;;;20.15;50.73;97308.16;10325049;28;20058;-25
2023/10/02 09:43:14;;;;;;;40.58;20.10;;;;;;;20.15;50.82;97303.94;10323539;28;20113;-24
2023/10/02 09:54:16;;;;;;;;;;;;;;;20.16;51.18;97294.59;10325733;28;20042;-24
2023/10/02 09:59:24;;;;;;;35.80;18.38;;;;;;;20.10;51.20;97280.16;10326190;28;20371;-24
2023/10/02 10:10:29;;;;;;;36.33;19.65;;;;;;;20.18;51.44;97280.22;10324209;28;20049;-24
2023/10/02 10:15:31;;;;;;;37.47;19.83;;;;;;;20.17;51.85;97273.44;10320768;28;20030;-23
2023/10/02 10:20:32;;;;;;;39.75;20.73;;;;;;;20.17;51.61;97274.25;10327027;28;20038;-25
2023/10/02 10:25:42;;;;;;;37.90;20.17;;;;;;;20.19;51.73;97266.66;10327955;28;20038;-24
2023/10/02 10:35:55;;;;;;;34.20;19.60;;;;;;;20.21;51.88;97257.31;10330119;28;20038;-23
2023/10/02 10:41:05;;;;;;;33.63;17.80;;;;;;;20.21;51.98;97252.22;10329419;28;20169;-24
2023/10/02 10:46:12;;;;;;;35.95;18.98;;;;;;;20.21;51.76;97247.16;10331052;28;20030;-23
2023/10/02 10:51:21;;;;;;;45.53;20.15;;;;;;;20.22;52.54;97248.84;10333267;28;20030;-24
2023/10/02 10:56:22;;;;;;;35.13;17.88;;;;;;;20.22;52.19;97238.66;10336817;28;20030;-24
2023/10/02 11:01:23;;;;;;;39.92;20.92;;;;;;;20.23;52.21;97240.38;10336092;28;20485;-24
2023/10/02 11:06:24;;;;;;;33.80;18.02;;;;;;;20.22;52.10;97233.59;10335806;28;20990;-23
2023/10/02 11:11:31;;;;;;;30.33;17.77;;;;;;;20.22;52.12;97233.59;10336441;28;20030;-24
2023/10/02 11:16:36;;;;;;;32.85;16.40;;;;;;;20.17;52.23;97214.94;10333626;28;20038;-23
2023/10/02 11:21:45;;;;;;;33.58;18.10;;;;;;;20.22;52.17;97221.72;10337254;28;20038;-24
2023/10/02 11:26:45;;;;;;;35.25;17.77;;;;;;;20.22;52.41;97216.66;10335436;28;20031;-24
2023/10/02 11:31:56;;;;;;;32.22;17.05;;;;;;;20.22;52.54;97213.25;10334047;28;20034;-24
2023/10/02 11:36:58;;;;;;;31.63;16.67;;;;;;;20.22;53.01;97208.16;10332814;28;20038;-24
2023/10/02 11:41:59;;;;;;;35.40;18.25;;;;;;;20.23;53.00;97205.63;10335279;28;20057;-24
2023/10/02 11:47:00;;;;;;;33.25;17.48;;;;;;;20.18;52.98;97186.13;10327638;28;20386;-23
2023/10/02 11:52:01;;;;;;;36.33;17.73;;;;;;;20.23;52.78;97186.97;10330133;28;20030;-24
2023/10/02 11:57:10;;;;;;;34.00;18.23;;;;;;;20.23;53.00;97189.50;10329985;28;20588;-23
2023/10/02 12:02:11;;;;;;;35.67;17.80;;;;;;;20.24;53.07;97178.50;10321205;28;20485;-24
2023/10/02 12:07:15;;;;;;;33.53;17.80;;;;;;;20.24;52.88;97173.41;10327936;28;20034;-24
2023/10/02 12:12:16;;;;;;;30.42;17.13;;;;;;;20.23;53.14;97170.03;10332203;28;20402;-24
2023/10/02 12:17:17;;;;;;;33.28;17.95;;;;;;;20.19;53.14;97158.16;10328337;28;20026;-23
2023/10/02 12:22:17;;;;;;;35.83;17.13;;;;;;;20.22;53.23;97152.22;10327947;28;20113;-24
2023/10/02 12:27:18;;;;;;;30.88;16.83;;;;;;;20.24;53.33;97155.59;10328920;28;20081;-24
2023/10/02 12:32:18;;;;;;;31.07;16.60;;;;;;;20.19;53.28;97136.97;10325306;28;20031;-24
2023/10/02 12:37:20;;;;;;;39.63;19.75;;;;;;;20.25;53.60;97137.00;10326459;28;20034;-24
2023/10/02 12:42:20;;;;;;;30.88;16.27;;;;;;;20.26;53.72;97138.69;10328525;28;20063;-24
2023/10/02 12:47:21;;;;;;;30.17;16.30;;;;;;;20.25;53.52;97125.09;10325859;28;20038;-24
2023/10/02 12:52:23;;;;;;;33.47;16.70;;;;;;;20.24;53.45;97114.91;10327418;28;20343;-24
2023/10/02 12:57:23;;;;;;;31.02;16.33;;;;;;;20.26;53.22;97110.72;10327891;28;20038;-24
2023/10/02 13:02:23;;;;;;;33.83;17.10;;;;;;;20.27;53.72;97099.69;10322001;28;20041;-24
2023/10/02 13:07:24;;;;;;;29.70;16.50;;;;;;;20.26;53.69;97092.91;10326130;28;20041;-24
2023/10/02 13:12:24;;;;;;;26.53;14.40;;;;;;;20.25;53.55;97092.06;10326102;28;20109;-24
2023/10/02 13:17:25;;;;;;;27.47;15.20;;;;;;;20.26;53.80;97088.66;10325802;28;20038;-24
2023/10/02 13:22:25;;;;;;;30.67;15.15;;;;;;;20.27;53.78;97081.88;10325370;28;20316;-24
2023/10/02 13:27:25;;;;;;;30.43;15.33;;;;;;;20.27;53.59;97084.44;10326642;28;20052;-24
2023/10/02 13:32:26;;;;;;;31.57;16.80;;;;;;;20.26;53.63;97082.75;10324236;28;20385;-24
2023/10/02 13:37:26;;;;;;;30.15;15.18;;;;;;;20.25;54.34;97068.34;10325080;28;20293;-24
2023/10/02 13:42:27;;;;;;;25.67;14.40;;;;;;;20.28;53.92;97075.94;10326918;28;20468;-23
2023/10/02 13:47:27;;;;;;;25.03;12.80;;;;;;;20.27;53.97;97067.47;10324680;28;20057;-24
2023/10/02 13:52:28;;;;;;;27.67;13.83;;;;;;;20.23;53.86;97059.84;10324354;28;20057;-23
2023/10/02 13:57:29;;;;;;;26.67;13.82;;;;;;;20.26;53.80;97062.41;10326417;28;20133;-23
2023/10/02 14:02:29;;;;;;;24.40;13.55;;;;;;;20.28;54.01;97060.69;10323782;28;20497;-24
2023/10/02 14:07:30;;;;;;;26.77;13.53;;;;;;;20.18;53.82;97041.22;10325333;28;20059;-23
2023/10/02 14:12:31;;;;;;;22.90;12.77;;;;;;;20.28;54.06;97050.53;10326179;28;20040;-25
2023/10/02 14:17:35;;;;;;;21.63;12.50;;;;;;;20.28;53.83;97053.06;10322794;28;20064;-25
2023/10/02 14:22:37;;;;;;;22.27;12.48;;;;;;;20.31;53.90;97050.50;10328268;28;20053;-25
2023/10/02 14:27:39;;;;;;;23.33;12.32;;;;;;;20.30;54.08;97041.19;10333402;28;20554;-26
2023/10/02 14:32:49;;;;;;;22.48;12.77;;;;;;;20.30;54.09;97036.09;10332529;28;20038;-25
2023/10/02 14:37:52;;;;;;;50.58;15.57;;;;;;;20.26;54.57;97022.53;10331831;28;20053;-25
2023/10/02 14:42:52;;;;;;;48.60;13.93;;;;;;;20.34;55.12;97037.81;10333511;28;20038;-25
2023/10/02 14:47:59;;;;;;;33.80;14.85;;;;;;;20.31;54.77;97030.16;10327941;28;20034;-26
2023/10/02 14:52:59;;;;;;;;;;;;;;;20.32;54.61;97026.75;10332923;28;20030;-25
2023/10/02 14:58:00;;;;;;;32.40;12.60;;;;;;;20.30;54.71;97028.47;10330866;28;20292;-25
2023/10/02 15:03:01;;;;;;;26.02;12.30;;;;;;;20.32;54.77;97024.22;10330489;28;20026;-25
2023/10/02 15:08:02;;;;;;;28.75;14.60;;;;;;;20.31;54.74;97022.53;10331765;28;20408;-24
2023/10/02 15:13:02;;;;;;;26.70;12.63;;;;;;;20.32;54.61;97019.13;10331157;28;20113;-25
2023/10/02 15:18:08;;;;;;;29.00;12.30;;;;;;;20.25;54.76;97008.16;10330287;28;20038;-25
2023/10/02 15:23:10;;;;;;;31.52;13.00;;;;;;;20.31;54.77;97009.81;10342448;23;20025;-25
2023/10/02 15:28:12;;;;;;;21.27;11.35;;;;;;;20.32;54.69;97001.34;10284460;28;20045;-26
2023/10/02 15:33:12;;;;;;;26.60;12.40;;;;;;;20.20;54.76;96981.91;10289253;28;20034;-26
2023/10/02 15:38:13;;;;;;;24.75;13.48;;;;;;;20.32;54.69;96993.72;10273931;28;20404;-26
2023/10/02 15:43:14;;;;;;;27.60;15.38;;;;;;;20.31;54.69;96985.25;10277452;28;20066;-26
2023/10/02 15:48:16;;;;;;;24.30;13.38;;;;;;;20.32;55.08;96998.78;10289338;28;20038;-26
2023/10/02 15:53:17;;;;;;;23.30;11.85;;;;;;;20.33;54.76;96982.72;10288573;28;20057;-25
2023/10/02 15:58:18;;;;;;;19.90;12.02;;;;;;;20.28;54.72;96979.31;10289284;28;20037;-27
2023/10/02 16:03:18;;;;;;;22.30;11.05;;;;;;;20.32;54.65;96981.84;10287713;28;20408;-26
2023/10/02 16:08:18;;;;;;;20.87;11.53;;;;;;;20.31;54.69;96987.78;10284007;28;20045;-26
2023/10/02 16:13:21;;;;;;;25.30;12.67;;;;;;;20.34;54.74;96999.66;10278997;28;20037;-26
2023/10/02 16:18:21;;;;;;;24.75;11.18;;;;;;;20.29;56.42;96996.28;10288163;28;20041;-26
2023/10/02 16:23:22;;;;;;;22.90;11.40;;;;;;;20.28;55.15;96995.41;10287159;28;20461;-27
2023/10/02 16:28:22;;;;;;;20.87;11.27;;;;;;;20.32;55.06;96986.06;10286057;28;20034;-26
2023/10/02 16:33:23;;;;;;;19.90;11.27;;;;;;;20.35;55.08;96996.25;10282298;28;20804;-26
2023/10/02 16:38:23;;;;;;;21.60;10.82;;;;;;;20.33;54.75;96982.72;10281590;28;20030;-26
2023/10/02 16:43:25;;;;;;;22.33;10.30;;;;;;;20.33;55.04;96983.53;10277716;28;20041;-27
2023/10/02 16:48:25;;;;;;;20.45;10.88;;;;;;;20.33;55.07;96990.34;10286769;28;20061;-26
2023/10/02 16:53:26;;;;;;;19.27;9.87;;;;;;;20.33;55.17;96993.72;10281852;28;20035;-26
2023/10/02 16:58:26;;;;;;;18.97;10.70;;;;;;;20.34;55.20;96999.66;10286918;28;20041;-26
2023/10/02 17:03:27;;;;;;;18.42;10.38;;;;;;;20.34;55.40;97009.84;10284797;28;20113;-26
2023/10/02 17:08:28;;;;;;;17.08;9.52;;;;;;;20.33;55.27;97011.50;10285847;28;20117;-26
2023/10/02 17:13:29;;;;;;;16.35;9.00;;;;;;;20.33;55.10;97000.50;10283185;28;20046;-26
2023/10/02 17:18:29;;;;;;;20.52;10.98;;;;;;;20.33;54.89;96998.81;10286038;28;20607;-26
2023/10/02 17:23:32;;;;;;;17.37;10.23;;;;;;;20.34;55.06;96992.03;10282360;28;20398;-27
2023/10/02 17:28:35;;;;;;;17.48;9.48;;;;;;;20.34;55.03;96999.66;10283513;28;20050;-26
2023/10/02 17:33:36;;;;;;;21.23;9.85;;;;;;;20.34;55.16;97002.19;10280815;28;20034;-26
2023/10/02 17:38:36;;;;;;;20.23;9.33;;;;;;;20.34;55.19;96999.66;10278376;28;20626;-26
2023/10/02 17:43:36;;;;;;;17.23;8.80;;;;;;;20.34;54.86;97004.75;10285091;28;20023;-26
2023/10/02 17:48:37;;;;;;;20.07;9.20;;;;;;;20.34;55.12;97002.19;10284593;28;20031;-26
2023/10/02 17:53:37;;;;;;;22.80;9.82;;;;;;;20.34;55.83;96999.66;10277078;28;20039;-26
2023/10/02 17:58:38;;;;;;;30.23;10.03;;;;;;;20.34;56.14;96997.94;10284166;28;20042;-26
2023/10/02 18:03:38;;;;;;;26.30;10.07;;;;;;;20.34;55.57;96992.03;10286552;28;20035;-26
2023/10/02 18:08:38;;;;;;;21.20;10.13;;;;;;;20.37;55.74;97003.03;10287306;28;20117;-25
2023/10/02 18:13:39;;;;;;;24.87;9.17;;;;;;;20.42;55.74;96994.53;10287156;28;20345;-26
2023/10/02 18:18:40;;;;;;;21.27;9.88;;;;;;;20.48;55.10;96999.59;10289342;28;20034;-25
2023/10/02 18:23:42;;;;;;;23.77;9.38;;;;;;;20.49;55.65;96995.34;10290802;28;20035;-27
2023/10/02 18:28:42;;;;;;;19.17;8.77;;;;;;;20.52;55.19;96998.75;10286205;28;20600;-26
2023/10/02 18:33:42;;;;;;;19.73;8.33;;;;;;;20.48;55.24;96999.59;10292288;28;20058;-26
2023/10/02 18:38:44;;;;;;;19.73;8.97;;;;;;;20.52;55.32;97006.38;10283623;28;20784;-27
2023/10/02 18:43:45;;;;;;;20.42;9.55;;;;;;;20.52;55.14;97006.38;10285171;28;20142;-27
2023/10/02 18:48:46;;;;;;;27.73;9.82;;;;;;;20.53;55.05;96997.88;10291466;28;20042;-26
2023/10/02 18:53:47;;;;;;;15.90;8.57;;;;;;;20.51;55.17;97004.69;10284448;28;20042;-27
2023/10/02 18:58:48;;;;;;;18.48;8.80;;;;;;;20.51;55.36;97012.31;10280097;28;20410;-26
2023/10/02 19:03:51;;;;;;;21.15;9.23;;;;;;;20.54;55.12;97009.75;10289035;28;20034;-26
2023/10/02 19:08:53;;;;;;;17.40;8.55;;;;;;;20.55;55.32;97003.81;10290450;28;20045;-27
2023/10/02 19:13:54;;;;;;;20.33;8.93;;;;;;;20.55;55.14;96998.72;10276663;28;20027;-26
2023/10/02 19:18:56;;;;;;;18.25;9.27;;;;;;;20.53;55.18;97002.13;10283299;28;20041;-26
2023/10/02 19:23:56;;;;;;;17.75;8.02;;;;;;;20.52;55.28;96997.88;10283017;28;20491;-26
2023/10/02 19:28:59;;;;;;;14.45;9.00;;;;;;;20.53;55.33;96992.81;10284037;28;20043;-26
2023/10/02 19:34:00;;;;;;;15.73;8.27;;;;;;;20.55;55.67;96996.19;10281007;28;20030;-27
2023/10/02 19:39:04;;;;;;;21.77;10.43;;;;;;;20.55;56.70;96992.81;10279288;28;20042;-26
2023/10/02 19:44:04;;;;;;;15.00;8.18;;;;;;;20.55;55.58;96991.09;10270402;28;20464;-26
2023/10/02 19:49:06;;;;;;;17.77;9.93;;;;;;;20.55;55.39;96986.00;10284885;28;20117;-26
2023/10/02 19:54:06;;;;;;;15.23;8.57;;;;;;;20.53;55.77;96982.63;10288085;28;20027;-26
2023/10/02 19:59:07;;;;;;;13.50;8.73;;;;;;;20.52;55.43;96983.47;10284287;28;20078;-26
2023/10/02 20:04:07;;;;;;;15.07;8.13;;;;;;;20.53;55.31;96982.63;10291922;28;20096;-26
2023/10/02 20:09:08;;;;;;;13.90;8.30;;;;;;;20.51;55.28;96989.44;10284930;28;20087;-27
2023/10/02 20:14:08;;;;;;;13.65;8.43;;;;;;;20.51;55.35;96988.56;10283940;28;20369;-26
2023/10/02 20:19:12;;;;;;;16.10;8.70;;;;;;;20.50;55.49;96980.09;10281800;28;20121;-25
2023/10/02 20:24:17;;;;;;;14.02;7.90;;;;;;;20.50;55.65;96985.19;10283044;28;20022;-26
2023/10/02 20:29:18;;;;;;;15.07;9.00;;;;;;;20.50;55.79;96975.00;10286663;28;20035;-26
2023/10/02 20:34:18;;;;;;;16.17;8.93;;;;;;;20.49;55.52;96970.78;10279617;28;20072;-26
2023/10/02 20:39:18;;;;;;;13.60;7.47;;;;;;;20.50;55.49;96980.09;10281592;28;20034;-26
2023/10/02 20:44:19;;;;;;;14.03;7.67;;;;;;;20.49;55.52;96978.41;10286661;28;20034;-25
2023/10/02 20:49:20;;;;;;;12.20;7.77;;;;;;;20.47;55.48;96977.56;10279590;28;20043;-27
2023/10/02 20:54:20;;;;;;;13.95;8.70;;;;;;;20.48;55.43;96971.59;10280987;28;20037;-26
2023/10/02 20:59:20;;;;;;;14.27;7.73;;;;;;;20.47;55.40;96967.38;10287174;28;20038;-26
2023/10/02 21:04:21;;;;;;;13.77;8.13;;;;;;;20.47;55.42;96969.91;10282482;28;20482;-27
2023/10/02 21:09:22;;;;;;;16.67;9.20;;;;;;;20.46;55.48;96955.50;10283789;28;20360;-26
2023/10/02 21:14:22;;;;;;;12.63;7.70;;;;;;;20.42;55.40;96961.47;10283180;28;20764;-25
2023/10/02 21:19:23;;;;;;;14.50;8.80;;;;;;;20.47;55.21;96962.28;10280094;28;20039;-26
2023/10/02 21:24:23;;;;;;;14.00;8.10;;;;;;;20.48;55.43;96963.97;10284197;28;20026;-26
2023/10/02 21:29:24;;;;;;;14.80;8.07;;;;;;;20.47;55.47;96956.38;10285783;28;20047;-26
2023/10/02 21:34:25;;;;;;;16.70;7.67;;;;;;;20.46;55.49;96952.97;10286105;28;20019;-26
2023/10/02 21:39:26;;;;;;;13.38;7.43;;;;;;;20.47;55.50;96957.19;10284614;28;20042;-25
2023/10/02 21:44:26;;;;;;;13.10;7.88;;;;;;;20.47;55.44;96946.19;10275136;28;20097;-26
2023/10/02 21:49:26;;;;;;;13.93;7.37;;;;;;;20.44;55.35;96954.69;10281067;28;20413;-26
2023/10/02 21:54:27;;;;;;;12.98;7.60;;;;;;;20.47;55.59;96958.91;10277132;28;20569;-27
2023/10/02 21:59:27;;;;;;;11.20;7.03;;;;;;;20.44;55.51;96947.06;10281888;28;20707;-26
2023/10/02 22:04:27;;;;;;;10.77;6.40;;;;;;;20.46;55.48;96955.50;10271333;28;20530;-26
2023/10/02 22:09:30;;;;;;;12.20;7.33;;;;;;;20.45;55.44;96953.81;10279386;28;20047;-27
2023/10/02 22:14:30;;;;;;;10.93;6.95;;;;;;;20.44;55.38;96952.13;10285265;28;20102;-26
2023/10/02 22:19:32;;;;;;;12.47;7.33;;;;;;;20.43;55.33;96945.38;10285019;28;20055;-26
2023/10/02 22:24:33;;;;;;;11.13;6.78;;;;;;;20.45;55.35;96956.38;10280307;28;20297;-26
2023/10/02 22:29:34;;;;;;;10.98;7.65;;;;;;;20.44;55.57;96947.06;10281221;28;20047;-26
2023/10/02 22:34:35;;;;;;;13.43;8.00;;;;;;;20.45;55.60;96958.09;10281502;28;20732;-26
2023/10/02 22:39:35;;;;;;;11.52;6.88;;;;;;;20.44;55.42;96954.69;10271217;28;20310;-26
2023/10/02 22:44:38;;;;;;;11.70;6.95;;;;;;;20.45;55.54;96948.75;10289881;28;20578;-26
2023/10/02 22:49:38;;;;;;;11.50;6.80;;;;;;;20.42;55.41;96945.38;10285204;28;20047;-26
2023/10/02 22:54:39;;;;;;;10.87;7.07;;;;;;;20.44;55.33;96941.97;10287099;28;20030;-26
2023/10/02 22:59:39;;;;;;;10.90;7.07;;;;;;;20.44;55.59;96941.09;10277365;28;20042;-27
2023/10/02 23:04:43;;;;;;;14.33;7.93;;;;;;;20.43;55.66;96940.28;10279009;28;20035;-26
2023/10/02 23:09:45;;;;;;;10.35;6.68;;;;;;;20.43;55.67;96942.81;10287385;28;20050;-27
2023/10/02 23:14:45;;;;;;;11.52;7.05;;;;;;;20.43;54.89;96929.25;10287354;28;20035;-25
2023/10/02 23:19:45;;;;;;;10.73;6.57;;;;;;;20.42;55.37;96928.41;10290877;28;20397;-26
2023/10/02 23:24:46;;;;;;;9.17;5.63;;;;;;;20.42;55.41;96903.00;10289947;28;20097;-25
2023/10/02 23:29:47;;;;;;;9.77;6.25;;;;;;;20.42;55.43;96915.69;10288783;28;20049;-27
2023/10/02 23:34:47;;;;;;;11.20;6.65;;;;;;;20.42;55.48;96906.38;10289557;28;20026;-26
2023/10/02 23:39:48;;;;;;;11.13;6.85;;;;;;;20.42;55.29;96913.16;10282210;28;20066;-27
2023/10/02 23:44:50;;;;;;;10.77;6.63;;;;;;;20.42;55.18;96906.38;10288845;28;20046;-25
2023/10/02 23:49:51;;;;;;;11.93;7.28;;;;;;;20.41;55.53;96897.91;10275518;28;20517;-27